Time;durP1;ratioP1;P1;durP2;ratioP2;P2;SDS_P1;SDS_P2;PMS_P1;PMS_P2;Temp;Humidity;BMP_temperature;BMP_pressure;BME280_temperature;BME280_humidity;BME280_pressure;Samples;Min_cycle;Max_cycle;Signal;HPM_P1;HPM_P2
2022/04/22 00:00:08;;;;;;;12.68;8.48;;;;;;;12.01;68.99;94484.78;4158706;28;20126;-57
2022/04/22 00:02:10;;;;;;;14.43;9.20;;;;;;;11.99;69.29;94486.75;4141322;28;20046;-58
2022/04/22 00:04:11;;;;;;;12.18;8.63;;;;;;;11.94;68.76;94490.88;4158474;28;20244;-57
2022/04/22 00:06:13;;;;;;;13.40;9.02;;;;;;;11.88;68.73;94482.72;4158688;28;20354;-58
2022/04/22 00:08:15;;;;;;;12.13;8.60;;;;;;;11.81;69.07;94479.13;4158262;28;20494;-58
2022/04/22 00:10:17;;;;;;;12.60;8.50;;;;;;;11.80;69.26;94472.22;4159079;28;20885;-59
2022/04/22 00:12:19;;;;;;;14.35;9.02;;;;;;;11.80;69.47;94469.59;4158782;28;20053;-59
2022/04/22 00:14:21;;;;;;;13.38;8.65;;;;;;;11.85;69.67;94477.78;4156980;28;20061;-60
2022/04/22 00:16:22;;;;;;;11.77;8.82;;;;;;;11.85;69.76;94472.53;4158666;28;20112;-59
2022/04/22 00:18:24;;;;;;;15.45;9.23;;;;;;;11.91;69.87;94476.28;4158533;28;20256;-59
2022/04/22 00:20:26;;;;;;;13.20;9.43;;;;;;;11.92;69.70;94469.25;4158461;28;20131;-58
2022/04/22 00:22:28;;;;;;;11.85;8.38;;;;;;;11.94;69.62;94462.00;4158602;28;20050;-58
2022/04/22 00:24:29;;;;;;;12.52;8.70;;;;;;;11.93;69.72;94452.50;4157249;28;20123;-58
2022/04/22 00:26:32;;;;;;;13.98;8.48;;;;;;;11.95;69.65;94442.66;4158500;28;20099;-58
2022/04/22 00:28:33;;;;;;;13.02;8.30;;;;;;;11.94;69.91;94435.75;4158935;28;20111;-59
2022/04/22 00:30:35;;;;;;;12.60;8.45;;;;;;;11.90;69.61;94439.75;4158229;28;20489;-58
2022/04/22 00:32:37;;;;;;;12.68;8.88;;;;;;;11.84;69.89;94436.75;4158479;28;20049;-58
2022/04/22 00:34:39;;;;;;;13.43;8.77;;;;;;;11.85;69.98;94443.66;4158079;28;20057;-58
2022/04/22 00:36:41;;;;;;;14.20;8.57;;;;;;;11.82;69.74;94449.25;4158186;28;20122;-58
2022/04/22 00:38:42;;;;;;;14.55;8.65;;;;;;;11.82;69.98;94459.75;4156192;28;20195;-58
2022/04/22 00:40:44;;;;;;;13.55;8.52;;;;;;;11.81;70.10;94452.06;4158386;28;20057;-58
2022/04/22 00:42:46;;;;;;;10.55;7.68;;;;;;;11.78;69.50;94449.75;4158716;28;20057;-58
2022/04/22 00:44:48;;;;;;;10.85;8.07;;;;;;;11.74;69.75;94443.22;4158367;28;20726;-58
2022/04/22 00:46:50;;;;;;;13.48;8.27;;;;;;;11.70;69.63;94447.97;4158514;28;20112;-58
2022/04/22 00:48:52;;;;;;;12.60;7.65;;;;;;;11.68;70.28;94450.81;4158152;28;20072;-59
2022/04/22 00:50:54;;;;;;;12.40;7.22;;;;;;;11.69;70.01;94451.63;4158757;28;20053;-58
2022/04/22 00:52:56;;;;;;;14.35;8.23;;;;;;;11.70;69.94;94434.88;4156952;28;20524;-58
2022/04/22 00:54:58;;;;;;;11.45;7.72;;;;;;;11.72;70.09;94435.50;4158155;28;20469;-59
2022/04/22 00:57:00;;;;;;;13.60;8.32;;;;;;;11.69;69.71;94430.63;4157006;28;20076;-58
2022/04/22 00:59:02;;;;;;;11.80;7.90;;;;;;;11.64;69.87;94428.53;4156999;28;20470;-59
2022/04/22 01:01:04;;;;;;;11.93;7.45;;;;;;;11.63;69.93;94418.19;4158441;28;20053;-58
2022/04/22 01:03:06;;;;;;;13.10;8.35;;;;;;;11.64;70.07;94404.09;4157473;28;20846;-57
2022/04/22 01:09:49;;;;;;;10.85;7.95;;;;;;;11.70;70.42;94408.63;4140524;28;20084;-59
2022/04/22 01:11:51;;;;;;;10.63;7.72;;;;;;;11.70;69.80;94403.38;4140888;28;20053;-60
2022/04/22 01:13:54;;;;;;;13.98;8.52;;;;;;;11.71;69.70;94399.78;4157870;28;20049;-58
2022/04/22 01:15:56;;;;;;;15.97;8.63;;;;;;;11.68;69.98;94393.06;4156706;28;20065;-58
2022/04/22 01:17:58;;;;;;;11.02;7.57;;;;;;;11.68;69.86;94379.97;4158259;28;20064;-60
2022/04/22 01:20:00;;;;;;;10.77;7.97;;;;;;;11.68;70.72;94387.03;4156688;28;20072;-59
2022/04/22 01:22:02;;;;;;;10.93;7.65;;;;;;;11.69;70.55;94375.53;4146098;28;20247;-58
2022/04/22 01:24:04;;;;;;;11.93;8.80;;;;;;;11.71;70.28;94370.91;4157106;28;20049;-58
2022/04/22 01:26:06;;;;;;;20.05;9.70;;;;;;;11.69;70.34;94370.28;4157641;28;20050;-58
2022/04/22 01:28:10;;;;;;;13.75;8.80;;;;;;;11.69;70.08;94360.59;4156381;28;20061;-58
2022/04/22 01:30:12;;;;;;;14.10;8.80;;;;;;;11.67;69.99;94346.00;4157385;28;20061;-57
2022/04/22 01:32:14;;;;;;;13.73;8.38;;;;;;;11.65;70.31;94337.50;4155149;28;20481;-57
2022/04/22 01:34:16;;;;;;;13.65;9.00;;;;;;;11.57;70.11;94330.50;4152789;28;20054;-59
2022/04/22 01:36:18;;;;;;;12.05;8.60;;;;;;;11.51;69.55;94330.38;4158193;28;20050;-60
2022/04/22 01:38:19;;;;;;;14.65;7.50;;;;;;;11.48;69.92;94327.09;4156476;28;20111;-60
2022/04/22 01:40:21;;;;;;;13.85;8.57;;;;;;;11.39;69.76;94337.81;4160657;28;20045;-60
2022/04/22 01:42:23;;;;;;;12.90;9.23;;;;;;;11.30;69.81;94336.25;4160958;28;20050;-60
2022/04/22 01:44:26;;;;;;;14.23;8.95;;;;;;;10.95;70.95;94335.72;4160792;28;20079;-61
2022/04/22 01:46:27;;;;;;;12.95;9.10;;;;;;;10.76;71.25;94343.03;4160545;28;20050;-60
2022/04/22 01:48:30;;;;;;;13.82;9.40;;;;;;;10.76;72.13;94336.97;4145995;28;20057;-59
2022/04/22 01:50:32;;;;;;;13.80;10.17;;;;;;;10.83;72.43;94351.03;4144685;28;20543;-60
2022/04/22 01:52:39;;;;;;;14.57;10.25;;;;;;;10.94;72.11;94358.50;4144505;28;20279;-61
2022/04/22 01:54:40;;;;;;;14.30;9.93;;;;;;;11.07;71.76;94363.22;4143533;28;20053;-60
2022/04/22 01:56:42;;;;;;;11.90;9.43;;;;;;;11.16;71.03;94359.56;4144699;28;20285;-60
2022/04/22 01:58:44;;;;;;;15.38;9.85;;;;;;;11.24;70.82;94358.72;4144895;28;20072;-60
2022/04/22 02:00:46;;;;;;;15.85;10.23;;;;;;;11.28;70.42;94360.00;4144270;28;20104;-60
2022/04/22 02:02:47;;;;;;;16.52;10.20;;;;;;;11.24;70.72;94382.31;4143997;28;20049;-58
2022/04/22 02:04:49;;;;;;;12.50;9.13;;;;;;;11.21;70.42;94393.16;4144376;28;20556;-58
2022/04/22 02:06:51;;;;;;;13.48;9.13;;;;;;;11.12;71.15;94399.41;4144294;28;20088;-57
2022/04/22 02:08:53;;;;;;;13.10;8.02;;;;;;;10.98;71.56;94403.56;4143123;28;20069;-59
2022/04/22 02:10:54;;;;;;;13.68;8.82;;;;;;;10.91;71.36;94408.66;4144473;28;20650;-59
2022/04/22 02:12:56;;;;;;;13.13;7.45;;;;;;;10.86;71.71;94409.16;4144379;28;20054;-59
2022/04/22 02:14:59;;;;;;;13.38;7.93;;;;;;;10.87;71.34;94409.97;4148181;28;20065;-59
2022/04/22 02:17:01;;;;;;;11.15;7.50;;;;;;;10.85;70.84;94414.56;4159348;28;20195;-60
2022/04/22 02:19:04;;;;;;;11.18;7.35;;;;;;;10.88;71.63;94408.97;4160228;28;20057;-60
2022/04/22 02:21:06;;;;;;;13.60;8.25;;;;;;;10.98;71.05;94412.22;4160644;28;20167;-60
2022/04/22 02:23:08;;;;;;;13.93;7.70;;;;;;;10.91;70.84;94406.03;4159156;28;20050;-60
2022/04/22 02:25:10;;;;;;;11.05;8.30;;;;;;;10.85;71.63;94398.84;4160451;28;20110;-60
2022/04/22 02:29:32;;;;;;;12.70;8.07;;;;;;;10.87;71.66;94383.75;4160113;28;20053;-62
2022/04/22 02:31:34;;;;;;;13.77;8.20;;;;;;;10.90;71.56;94375.56;4160164;28;20049;-59
2022/04/22 02:33:37;;;;;;;13.30;9.13;;;;;;;10.95;71.73;94373.25;4159930;28;20095;-60
2022/04/22 02:35:39;;;;;;;13.57;8.90;;;;;;;10.88;71.52;94361.00;4160113;28;20119;-60
2022/04/22 02:37:41;;;;;;;12.30;8.75;;;;;;;10.88;72.07;94361.00;4160235;28;20259;-60
2022/04/22 02:39:42;;;;;;;17.40;8.93;;;;;;;10.89;72.00;94362.63;4158469;28;20121;-61
2022/04/22 02:46:26;;;;;;;15.73;9.07;;;;;;;10.97;72.37;94360.81;4160109;28;20053;-59
2022/04/22 02:48:28;;;;;;;17.70;10.57;;;;;;;11.02;72.46;94370.78;4158691;28;20053;-60
2022/04/22 02:50:29;;;;;;;14.95;10.77;;;;;;;11.04;72.25;94374.84;4159569;28;20053;-61
2022/04/22 02:52:31;;;;;;;17.13;10.55;;;;;;;11.11;71.68;94376.81;4160005;28;20306;-60
2022/04/22 02:54:34;;;;;;;19.27;10.70;;;;;;;11.14;71.65;94366.81;4158705;28;20057;-60
2022/04/22 02:56:37;;;;;;;15.65;10.98;;;;;;;11.16;71.69;94366.63;4160015;28;20285;-60
2022/04/22 02:58:40;;;;;;;18.45;11.43;;;;;;;11.13;72.07;94370.41;4159812;28;20095;-61
2022/04/22 03:00:42;;;;;;;17.38;11.35;;;;;;;11.17;71.93;94371.69;4159966;28;20119;-60
2022/04/22 03:02:44;;;;;;;13.52;10.00;;;;;;;11.17;71.94;94363.03;4158855;28;20053;-58
2022/04/22 03:04:47;;;;;;;17.42;10.50;;;;;;;11.18;72.01;94362.00;4158436;28;20115;-59
2022/04/22 03:06:49;;;;;;;15.57;10.23;;;;;;;11.18;71.73;94357.59;4159628;28;20058;-60
2022/04/22 03:08:51;;;;;;;16.67;10.27;;;;;;;11.22;71.67;94366.75;4158355;28;20126;-60
2022/04/22 03:10:53;;;;;;;13.35;10.40;;;;;;;11.23;71.55;94367.59;4159833;28;20084;-58
2022/04/22 03:12:54;;;;;;;16.83;10.02;;;;;;;11.24;71.59;94366.59;4159534;28;20348;-60
2022/04/22 03:14:56;;;;;;;13.93;10.05;;;;;;;11.20;71.82;94360.03;4159507;28;20115;-61
2022/04/22 03:16:58;;;;;;;17.63;10.80;;;;;;;11.25;71.71;94365.59;4157672;28;20053;-61
2022/04/22 03:19:00;;;;;;;13.57;9.80;;;;;;;11.27;71.67;94371.47;4158650;28;20108;-59
2022/04/22 03:21:02;;;;;;;14.57;9.73;;;;;;;11.32;71.32;94377.03;4159460;28;20053;-60
2022/04/22 03:23:04;;;;;;;12.27;9.23;;;;;;;11.34;71.05;94382.13;4158194;28;20056;-60
2022/04/22 03:25:06;;;;;;;13.40;9.68;;;;;;;11.34;70.65;94382.13;4159536;28;20045;-62
2022/04/22 03:27:08;;;;;;;18.23;10.35;;;;;;;11.33;71.09;94383.91;4159431;28;20130;-60
2022/04/22 03:29:10;;;;;;;15.40;9.02;;;;;;;11.35;70.73;94394.22;4159483;28;20049;-60
2022/04/22 03:31:13;;;;;;;12.52;9.02;;;;;;;11.36;70.36;94388.81;4159213;28;20362;-61
2022/04/22 03:33:15;;;;;;;13.73;8.75;;;;;;;11.32;70.17;94390.16;4158832;28;20525;-59
2022/04/22 03:35:20;;;;;;;11.77;8.20;;;;;;;11.31;70.31;94393.75;4159369;28;20119;-63
2022/04/22 03:37:22;;;;;;;12.88;9.02;;;;;;;11.32;70.50;94384.09;4159393;28;20076;-60
2022/04/22 03:39:24;;;;;;;11.90;8.65;;;;;;;11.33;70.12;94396.19;4158107;28;20053;-60
2022/04/22 03:41:25;;;;;;;12.27;8.93;;;;;;;11.34;69.90;94398.66;4159206;28;20045;-60
2022/04/22 03:43:27;;;;;;;11.85;8.90;;;;;;;11.40;69.72;94402.38;4159046;28;20053;-61
2022/04/22 03:45:29;;;;;;;12.40;9.00;;;;;;;11.38;70.11;94410.44;4159346;28;20131;-59
2022/04/22 03:47:31;;;;;;;15.13;9.15;;;;;;;11.32;70.82;94413.75;4158959;28;20119;-60
2022/04/22 03:49:33;;;;;;;16.23;9.07;;;;;;;11.28;70.91;94408.03;4158986;28;20053;-60
2022/04/22 03:51:35;;;;;;;14.88;9.05;;;;;;;11.33;70.74;94401.44;4159237;28;20057;-62
2022/04/22 03:53:39;;;;;;;12.98;8.77;;;;;;;11.34;70.54;94403.09;4158034;28;20053;-59
2022/04/22 03:55:42;;;;;;;10.65;8.52;;;;;;;11.33;70.71;94402.25;4174232;28;20056;-64
2022/04/22 04:00:05;;;;;;;12.82;7.70;;;;;;;11.35;71.13;94400.28;4159418;28;20131;-63
2022/04/22 04:02:07;;;;;;;10.88;8.70;;;;;;;11.25;70.70;94408.38;4158693;28;20045;-61
2022/04/22 04:04:10;;;;;;;12.30;8.48;;;;;;;11.26;71.05;94406.56;4158611;28;20057;-59
2022/04/22 04:06:12;;;;;;;10.48;7.55;;;;;;;11.28;70.32;94415.06;4157489;28;20053;-62
2022/04/22 04:08:15;;;;;;;10.90;8.00;;;;;;;11.27;70.30;94410.81;4157631;28;20049;-60
2022/04/22 04:17:18;;;;;;;12.90;7.85;;;;;;;11.30;71.02;94384.25;4160777;28;20067;-61
2022/04/22 04:24:01;;;;;;;13.25;8.38;;;;;;;11.28;70.61;94396.72;4157303;28;20091;-61
2022/04/22 04:26:03;;;;;;;12.70;8.27;;;;;;;11.23;71.11;94393.81;4158765;28;20061;-60
2022/04/22 04:28:05;;;;;;;11.02;8.25;;;;;;;11.21;71.31;94385.28;4158924;28;20052;-60
2022/04/22 04:30:08;;;;;;;10.68;7.70;;;;;;;11.25;71.59;94376.09;4158664;28;20050;-61
2022/04/22 04:32:09;;;;;;;13.80;9.27;;;;;;;11.27;71.70;94392.44;4159017;28;20049;-59
2022/04/22 04:34:11;;;;;;;12.70;8.48;;;;;;;11.29;71.28;94390.47;4158253;28;20148;-59
2022/04/22 04:36:13;;;;;;;12.60;7.93;;;;;;;11.23;71.11;94391.19;4158801;28;20072;-59
2022/04/22 04:38:15;;;;;;;9.80;7.35;;;;;;;11.21;70.92;94385.28;4157551;28;20146;-60
2022/04/22 04:40:16;;;;;;;13.55;7.82;;;;;;;11.24;71.02;94375.25;4158581;28;20171;-59
2022/04/22 04:42:19;;;;;;;11.77;8.07;;;;;;;11.14;71.50;94371.22;4158814;28;20050;-61
2022/04/22 04:44:21;;;;;;;12.73;8.07;;;;;;;11.11;71.36;94372.38;4158698;28;20116;-58
2022/04/22 04:46:23;;;;;;;14.02;8.40;;;;;;;11.12;71.84;94381.03;4158814;28;20107;-60
2022/04/22 04:48:25;;;;;;;12.80;8.15;;;;;;;11.05;71.55;94381.72;4158381;28;20127;-59
2022/04/22 04:50:27;;;;;;;13.20;7.90;;;;;;;11.07;71.91;94378.94;4158662;28;20154;-60
2022/04/22 04:52:28;;;;;;;11.23;7.53;;;;;;;11.11;72.02;94371.56;4158647;28;20293;-59
2022/04/22 04:54:30;;;;;;;15.43;8.05;;;;;;;11.11;71.60;94376.81;4155642;28;20504;-59
2022/04/22 04:56:33;;;;;;;14.98;8.48;;;;;;;11.13;71.07;94374.81;4158239;28;20079;-62
2022/04/22 04:58:34;;;;;;;13.55;9.10;;;;;;;11.17;71.23;94373.50;4158795;28;20119;-58
2022/04/22 05:00:36;;;;;;;12.68;9.15;;;;;;;11.20;71.29;94370.53;4158732;28;20051;-60
2022/04/22 05:02:38;;;;;;;15.07;9.27;;;;;;;11.17;71.29;94373.50;4158888;28;20056;-60
2022/04/22 05:04:40;;;;;;;15.07;9.23;;;;;;;11.18;70.78;94360.19;4158701;28;20057;-59
2022/04/22 05:06:42;;;;;;;13.45;9.70;;;;;;;11.21;70.30;94367.75;4158590;28;20057;-60
2022/04/22 05:08:44;;;;;;;15.70;9.27;;;;;;;11.18;70.57;94348.91;4157230;28;20049;-61
2022/04/22 05:10:45;;;;;;;13.70;8.98;;;;;;;11.16;70.69;94348.25;4157160;28;20053;-60
2022/04/22 05:12:48;;;;;;;13.20;10.68;;;;;;;11.18;71.31;94348.91;4159463;28;20050;-59
2022/04/22 05:14:50;;;;;;;15.70;10.85;;;;;;;10.97;70.55;94339.84;4161586;28;20424;-61
2022/04/22 05:16:54;;;;;;;19.48;10.38;;;;;;;10.92;71.12;94338.69;4161633;28;20146;-62
2022/04/22 05:18:56;;;;;;;15.70;9.80;;;;;;;10.92;71.57;94334.28;4163345;28;20072;-63
2022/04/22 05:21:01;;;;;;;19.75;10.52;;;;;;;10.92;71.89;94326.41;4156052;28;20081;-61
2022/04/22 05:23:03;;;;;;;16.30;10.60;;;;;;;10.95;71.05;94310.38;4143730;28;20620;-61
2022/04/22 05:25:07;;;;;;;14.43;10.35;;;;;;;10.99;71.12;94314.28;4145115;28;20093;-60
2022/04/22 05:27:09;;;;;;;16.60;10.57;;;;;;;11.05;71.09;94307.50;4145069;28;20058;-59
2022/04/22 05:32:36;;;;;;;14.52;10.52;;;;;;;11.10;71.28;94289.47;4147921;28;20060;-61
2022/04/22 05:33:54;;;;;;;15.63;10.55;;;;;;;11.17;71.13;94273.88;4161096;28;20056;-60
2022/04/22 05:35:57;;;;;;;13.23;9.70;;;;;;;11.20;71.12;94269.09;4161149;28;20378;-60
2022/04/22 05:38:03;;;;;;;13.48;10.45;;;;;;;11.16;71.23;94248.63;4159613;28;20053;-62
2022/04/22 05:40:06;;;;;;;16.98;9.60;;;;;;;11.02;70.20;94229.25;4159828;28;20199;-59
2022/04/22 05:42:08;;;;;;;14.27;9.30;;;;;;;10.98;70.31;94220.91;4159779;28;20143;-61
2022/04/22 05:44:09;;;;;;;11.57;8.20;;;;;;;10.94;69.94;94214.38;4160760;28;20046;-60
2022/04/22 05:46:11;;;;;;;13.05;8.75;;;;;;;10.95;69.89;94212.56;4160919;28;20111;-61
2022/04/22 05:48:13;;;;;;;12.32;9.35;;;;;;;10.87;69.18;94187.22;4149989;28;20054;-60
2022/04/22 05:50:17;;;;;;;11.73;9.20;;;;;;;10.94;69.98;94188.16;4145102;28;20125;-62
2022/04/22 05:52:19;;;;;;;10.70;7.97;;;;;;;11.02;69.76;94187.31;4144704;28;20050;-61
2022/04/22 05:54:21;;;;;;;13.45;9.10;;;;;;;11.07;69.16;94187.59;4143364;28;20061;-60
2022/04/22 05:56:23;;;;;;;9.90;7.60;;;;;;;11.08;68.79;94194.47;4144694;28;20061;-60
2022/04/22 05:58:25;;;;;;;11.80;8.27;;;;;;;11.15;68.90;94191.97;4150913;28;20457;-60
2022/04/22 06:00:30;;;;;;;12.18;8.30;;;;;;;11.23;68.37;94186.66;4160333;28;20053;-61
2022/04/22 06:02:32;;;;;;;17.20;9.60;;;;;;;11.32;67.97;94192.66;4159262;28;20056;-60
2022/04/22 06:04:34;;;;;;;11.85;8.40;;;;;;;11.45;67.96;94200.75;4160007;28;20065;-52
2022/04/22 06:06:36;;;;;;;13.10;7.90;;;;;;;11.50;67.52;94193.16;4160503;28;20053;-60
2022/04/22 06:11:07;;;;;;;9.85;7.55;;;;;;;11.52;67.46;94190.38;4160913;28;20557;-54
2022/04/22 06:13:09;;;;;;;11.27;7.95;;;;;;;11.37;65.82;94183.25;4160638;28;20107;-54
2022/04/22 06:15:11;;;;;;;11.68;7.80;;;;;;;11.30;67.18;94187.59;4160762;28;20579;-56
2022/04/22 06:17:13;;;;;;;13.40;7.82;;;;;;;11.22;67.24;94171.91;4160783;28;20332;-53
2022/04/22 06:19:17;;;;;;;13.68;8.70;;;;;;;11.27;66.90;94185.28;4159821;28;20068;-53
2022/04/22 06:21:19;;;;;;;15.30;8.23;;;;;;;11.33;66.91;94187.22;4165383;28;20049;-51
2022/04/22 06:23:20;;;;;;;11.02;7.63;;;;;;;11.35;67.09;94185.25;4175898;28;20056;-53
2022/04/22 06:25:22;;;;;;;10.93;7.90;;;;;;;11.25;66.91;94185.50;4176337;28;20053;-56
2022/04/22 06:27:34;;;;;;;46.42;25.20;;;;;;;11.36;67.37;94167.72;4177202;28;20048;-54
2022/04/22 06:29:37;;;;;;;11.50;7.18;;;;;;;11.28;66.58;94173.84;4162531;28;20471;-51
2022/04/22 06:31:39;;;;;;;10.00;7.45;;;;;;;11.37;66.86;94179.81;4160862;28;20065;-51
2022/04/22 06:33:41;;;;;;;12.13;8.35;;;;;;;11.51;66.40;94180.84;4160701;28;20481;-48
2022/04/22 06:35:44;;;;;;;12.60;8.27;;;;;;;11.51;65.86;94184.31;4159568;28;20111;-50
2022/04/22 06:37:48;;;;;;;12.10;8.07;;;;;;;11.63;65.97;94182.06;4159953;28;20762;-48
2022/04/22 06:46:52;;;;;;;12.50;7.05;;;;;;;12.24;64.08;94187.22;4160361;28;20063;-52
2022/04/22 06:48:54;;;;;;;12.93;7.40;;;;;;;12.31;64.85;94193.38;4159735;28;20049;-54
2022/04/22 06:50:58;;;;;;;9.38;7.18;;;;;;;12.43;64.27;94191.09;4159759;28;20045;-49
2022/04/22 06:53:00;;;;;;;;;;;;;;;12.45;64.27;94184.69;4159166;28;20330;-53
2022/04/22 06:55:02;;;;;;;9.43;6.80;;;;;;;12.52;63.47;94190.00;4160501;28;19987;-54
2022/04/22 06:57:04;;;;;;;11.43;7.53;;;;;;;12.57;63.67;94168.44;4160301;28;20540;-53
2022/04/22 06:59:06;;;;;;;10.48;6.82;;;;;;;12.70;62.71;94158.88;4160207;28;20049;-54
2022/04/22 07:01:09;;;;;;;11.27;8.05;;;;;;;12.84;62.54;94159.88;4160107;28;20076;-52
2022/04/22 07:03:31;;;;;;;11.35;7.75;;;;;;;12.99;62.73;94159.81;4159712;28;20136;-51
2022/04/22 07:05:34;;;;;;;13.75;7.40;;;;;;;13.02;62.05;94161.25;4159904;28;20049;-53
2022/04/22 07:07:36;;;;;;;11.02;7.32;;;;;;;13.06;61.56;94165.94;4160165;28;20110;-52
2022/04/22 07:09:38;;;;;;;11.50;6.68;;;;;;;13.18;60.85;94162.81;4158754;28;20053;-55
2022/04/22 07:11:41;;;;;;;9.02;6.40;;;;;;;12.69;61.51;94144.13;4159870;28;20050;-54
2022/04/22 07:13:43;;;;;;;9.85;6.88;;;;;;;12.71;61.98;94164.94;4159868;28;20057;-52
2022/04/22 07:15:47;;;;;;;13.65;7.10;;;;;;;12.79;62.28;94145.63;4159642;28;20085;-56
2022/04/22 07:17:49;;;;;;;9.60;6.53;;;;;;;12.94;61.32;94135.88;4159589;28;20505;-52
2022/04/22 07:19:51;;;;;;;18.48;9.73;;;;;;;12.97;62.02;94147.84;4159241;28;20250;-57
2022/04/22 07:21:53;;;;;;;13.85;7.63;;;;;;;13.07;61.70;94158.88;4157347;28;20175;-58
2022/04/22 07:23:57;;;;;;;21.33;10.85;;;;;;;13.35;61.88;94161.56;4157901;28;20433;-55
2022/04/22 07:25:59;;;;;;;20.60;11.35;;;;;;;13.58;60.72;94160.56;4159729;28;20067;-54
2022/04/22 07:28:01;;;;;;;18.42;11.02;;;;;;;13.80;60.83;94154.25;4158936;28;20049;-54
2022/04/22 07:30:05;;;;;;;9.63;6.32;;;;;;;13.99;59.50;94157.22;4158917;28;20061;-50
2022/04/22 07:32:08;;;;;;;6.00;5.00;;;;;;;14.19;59.00;94158.13;4159065;28;20049;-54
2022/04/22 07:34:10;;;;;;;9.82;6.20;;;;;;;14.37;58.17;94148.88;4158299;28;20123;-53
2022/04/22 07:36:12;;;;;;;12.07;6.28;;;;;;;14.42;58.35;94154.41;4159161;28;20525;-53
2022/04/22 07:38:14;;;;;;;12.13;5.90;;;;;;;14.44;56.76;94152.38;4157131;28;20143;-55
2022/04/22 07:40:19;;;;;;;9.30;5.22;;;;;;;14.41;58.12;94165.94;4158980;28;20520;-56
2022/04/22 07:42:37;;;;;;;9.57;5.55;;;;;;;14.45;56.60;94156.63;4158966;28;20057;-56
2022/04/22 07:47:02;;;;;;;9.02;5.43;;;;;;;14.62;56.74;94159.78;4157643;28;20525;-60
2022/04/22 07:49:05;;;;;;;11.60;5.30;;;;;;;14.64;56.68;94139.31;4158986;28;20425;-57
2022/04/22 07:51:07;;;;;;;7.38;4.55;;;;;;;14.56;56.26;94148.19;4159240;28;20056;-57
2022/04/22 07:53:09;;;;;;;7.35;4.75;;;;;;;14.67;56.24;94152.09;4157492;28;20107;-56
2022/04/22 07:55:15;;;;;;;7.28;4.90;;;;;;;14.67;56.01;94160.81;4158977;28;20049;-57
2022/04/22 07:57:17;;;;;;;7.68;4.88;;;;;;;14.58;56.25;94156.72;4158953;28;20613;-55
2022/04/22 07:59:19;;;;;;;8.18;5.00;;;;;;;14.68;56.12;94156.34;4158326;28;20057;-58
2022/04/22 08:01:21;;;;;;;8.98;5.13;;;;;;;14.81;55.78;94158.22;4157874;28;20107;-55
2022/04/22 08:03:23;;;;;;;8.73;4.95;;;;;;;14.81;54.84;94181.97;4158649;28;20152;-56
2022/04/22 08:05:25;;;;;;;7.88;5.25;;;;;;;14.86;55.46;94185.63;4157110;28;20077;-57
2022/04/22 08:07:27;;;;;;;11.77;5.65;;;;;;;14.88;55.81;94182.78;4159158;28;20564;-58
2022/04/22 08:09:29;;;;;;;5.25;4.22;;;;;;;14.94;55.34;94187.28;4157910;28;20053;-55
2022/04/22 08:11:30;;;;;;;8.27;4.70;;;;;;;15.09;55.10;94193.19;4157760;28;20847;-57
2022/04/22 08:13:34;;;;;;;5.20;4.07;;;;;;;15.26;54.80;94185.72;4158972;28;20126;-57
2022/04/22 08:15:37;;;;;;;11.75;7.18;;;;;;;15.23;54.50;94180.03;4158792;28;20143;-57
2022/04/22 08:17:39;;;;;;;9.05;5.30;;;;;;;14.98;54.35;94174.50;4158679;28;20506;-55
2022/04/22 08:19:43;;;;;;;10.73;6.93;;;;;;;14.93;55.08;94164.56;4158787;28;20165;-54
2022/04/22 08:21:45;;;;;;;12.27;6.97;;;;;;;14.87;55.60;94171.44;4154784;28;20761;-54
2022/04/22 08:23:48;;;;;;;14.77;6.45;;;;;;;14.68;55.85;94151.09;4156570;28;20068;-58
2022/04/22 08:25:50;;;;;;;16.77;6.78;;;;;;;14.77;55.79;94151.72;4159030;28;20486;-55
2022/04/22 08:27:52;;;;;;;14.27;6.72;;;;;;;14.69;55.88;94158.81;4158778;28;20508;-57
2022/04/22 08:29:54;;;;;;;10.90;6.65;;;;;;;14.95;55.90;94149.34;4158835;28;20588;-56
2022/04/22 08:31:56;;;;;;;9.48;5.95;;;;;;;15.23;55.35;94146.56;4158686;28;20045;-57
2022/04/22 08:33:58;;;;;;;13.50;4.97;;;;;;;15.34;54.40;94160.97;4158002;28;20091;-55
2022/04/22 08:36:00;;;;;;;8.57;5.80;;;;;;;15.48;53.72;94145.97;4156475;28;20053;-57
2022/04/22 08:38:03;;;;;;;8.98;5.75;;;;;;;15.42;53.77;94142.28;4154037;28;20053;-55
2022/04/22 08:40:06;;;;;;;7.95;6.05;;;;;;;15.20;54.63;94132.94;4158129;28;20049;-56
2022/04/22 08:42:08;;;;;;;12.20;5.13;;;;;;;15.25;54.95;94131.34;4158061;28;20165;-55
2022/04/22 08:44:31;;;;;;;13.68;5.32;;;;;;;15.49;53.90;94131.75;4155588;28;20337;-57
2022/04/22 08:51:14;;;;;;;9.68;4.97;;;;;;;15.77;53.14;94129.75;4158685;28;20057;-52
2022/04/22 08:53:21;;;;;;;7.88;4.70;;;;;;;15.96;53.44;94116.72;4157273;28;20049;-55
2022/04/22 08:55:25;;;;;;;7.03;4.55;;;;;;;16.09;52.63;94121.13;4159005;28;20397;-57
2022/04/22 08:57:28;;;;;;;7.10;4.25;;;;;;;16.24;52.40;94110.31;4159903;28;20057;-55
2022/04/22 08:59:30;;;;;;;6.03;4.20;;;;;;;16.41;53.14;94110.69;4160255;28;20053;-54
2022/04/22 09:01:33;;;;;;;15.15;7.90;;;;;;;16.56;52.64;94121.78;4160371;28;20210;-57
2022/04/22 09:03:35;;;;;;;9.70;5.63;;;;;;;16.59;52.72;94103.69;4159932;28;20104;-55
2022/04/22 09:05:37;;;;;;;6.18;4.00;;;;;;;16.64;51.61;94105.69;4160106;28;20053;-52
2022/04/22 09:07:42;;;;;;;6.10;4.53;;;;;;;16.71;51.48;94097.72;4160458;28;20155;-54
2022/04/22 09:09:49;;;;;;;8.50;4.60;;;;;;;16.59;51.41;94087.03;4159369;28;20064;-55
2022/04/22 09:11:52;;;;;;;6.80;4.50;;;;;;;16.45;51.54;94090.75;4160032;28;20053;-53
2022/04/22 09:13:54;;;;;;;4.95;3.80;;;;;;;16.41;51.20;94094.81;4158623;28;20152;-54
2022/04/22 09:15:57;;;;;;;6.32;3.85;;;;;;;16.38;50.95;94102.16;4160108;28;20186;-57
2022/04/22 09:18:15;;;;;;;7.07;4.18;;;;;;;16.61;51.26;94090.25;4157658;28;20140;-55
2022/04/22 09:20:17;;;;;;;8.02;4.10;;;;;;;16.90;50.84;94082.81;4160469;28;20668;-53
2022/04/22 09:22:23;;;;;;;5.25;3.80;;;;;;;16.74;49.32;94087.53;4160284;28;20046;-54
2022/04/22 09:24:25;;;;;;;8.50;3.90;;;;;;;16.55;50.07;94096.41;4156992;28;20050;-53
2022/04/22 09:26:27;;;;;;;5.68;3.88;;;;;;;16.42;50.53;94094.63;4161475;28;20049;-54
2022/04/22 09:28:29;;;;;;;14.00;4.55;;;;;;;16.25;51.05;94094.28;4161369;28;20053;-54
2022/04/22 09:30:31;;;;;;;7.53;4.10;;;;;;;16.37;50.66;94092.59;4161571;28;20429;-57
2022/04/22 09:32:39;;;;;;;9.23;3.95;;;;;;;16.59;49.66;94090.47;4161747;28;20045;-54
2022/04/22 09:34:42;;;;;;;6.75;4.32;;;;;;;16.67;49.70;94081.50;4158676;28;20075;-52
2022/04/22 09:43:53;;;;;;;6.15;4.13;;;;;;;17.19;49.87;94076.91;4159651;28;20053;-56
2022/04/22 09:45:54;;;;;;;7.15;4.72;;;;;;;16.97;49.65;94065.88;4158119;28;20563;-55
2022/04/22 09:47:58;;;;;;;7.97;4.32;;;;;;;17.20;49.71;94081.16;4157004;28;20052;-53
2022/04/22 09:50:01;;;;;;;11.77;4.60;;;;;;;17.27;49.14;94069.72;4160141;28;20057;-54
2022/04/22 09:52:05;;;;;;;7.97;4.30;;;;;;;17.40;49.52;94061.66;4160523;28;20046;-51
2022/04/22 09:54:10;;;;;;;;;;;;;;;17.42;49.29;94049.03;4160793;28;20041;-54
2022/04/22 09:56:12;;;;;;;6.15;3.97;;;;;;;17.37;49.59;94060.28;4159605;28;19933;-53
2022/04/22 09:58:24;;;;;;;6.95;4.85;;;;;;;17.44;49.31;94054.13;4159251;28;20501;-54
2022/04/22 10:00:28;;;;;;;6.65;4.40;;;;;;;17.74;49.06;94044.44;4159200;28;20057;-55
2022/04/22 10:02:30;;;;;;;11.38;4.70;;;;;;;17.73;49.12;94018.19;4160925;28;20121;-58
2022/04/22 10:04:32;;;;;;;9.25;4.50;;;;;;;17.63;49.18;94037.22;4160610;28;20119;-51
2022/04/22 10:06:34;;;;;;;9.65;4.95;;;;;;;17.68;48.88;94018.88;4142757;28;20054;-52
2022/04/22 10:08:36;;;;;;;6.10;4.10;;;;;;;17.76;49.00;94023.84;4159273;28;20399;-50
2022/04/22 10:10:39;;;;;;;8.32;4.35;;;;;;;17.92;49.14;94027.81;4160912;28;20473;-50
2022/04/22 10:12:41;;;;;;;10.35;4.32;;;;;;;17.60;48.51;94030.53;4160252;28;20453;-49
2022/04/22 10:14:43;;;;;;;6.95;4.70;;;;;;;17.09;50.00;94026.28;4159069;28;20105;-50
2022/04/22 10:16:45;;;;;;;10.32;4.57;;;;;;;16.93;50.71;94032.13;4158561;28;20049;-51
2022/04/22 10:18:47;;;;;;;7.22;4.53;;;;;;;16.89;51.20;94020.34;4156740;28;20046;-49
2022/04/22 10:20:49;;;;;;;11.68;5.40;;;;;;;17.02;50.80;94020.25;4155641;28;20426;-52
2022/04/22 10:22:51;;;;;;;7.55;4.40;;;;;;;16.85;51.17;93995.34;4144216;28;20061;-50